createdAt,value
2019-01-14T00:02:18.649Z,2.40
2019-01-14T00:04:46.997Z,4.20
2019-01-14T00:07:15.401Z,2.65
2019-01-14T00:09:43.860Z,2.50
2019-01-14T00:12:12.606Z,2.15
2019-01-14T00:14:41.017Z,2.60
2019-01-14T00:17:09.570Z,2.55
2019-01-14T00:19:37.916Z,2.80
2019-01-14T00:22:06.947Z,2.23
2019-01-14T00:24:35.372Z,2.40
2019-01-14T00:27:03.829Z,1.80
2019-01-14T00:29:32.159Z,2.60
2019-01-14T00:32:00.494Z,2.73
2019-01-14T00:34:29.205Z,2.30
2019-01-14T00:36:57.509Z,2.40
2019-01-14T00:39:25.847Z,2.50
2019-01-14T00:41:54.192Z,2.30
2019-01-14T00:44:22.534Z,1.90
2019-01-14T00:46:50.828Z,2.43
2019-01-14T00:49:19.161Z,2.17
2019-01-14T00:51:47.483Z,4.33
2019-01-14T00:54:15.822Z,4.20
2019-01-14T00:56:44.138Z,2.40
2019-01-14T00:59:12.544Z,2.70
2019-01-14T01:01:40.961Z,3.13
2019-01-14T01:04:09.598Z,1.80
2019-01-14T01:06:38.019Z,2.00
2019-01-14T01:09:07.040Z,1.67
2019-01-14T01:11:35.453Z,1.67
2019-01-14T01:14:03.921Z,1.67
2019-01-14T01:16:32.277Z,1.53
2019-01-14T01:19:00.605Z,1.57
2019-01-14T01:21:29.006Z,1.80
2019-01-14T01:23:57.312Z,2.03
2019-01-14T01:26:25.657Z,2.10
2019-01-14T01:28:54.005Z,2.30
2019-01-14T01:31:22.342Z,2.00
2019-01-14T01:33:50.673Z,2.67
2019-01-14T01:36:19.072Z,2.67
2019-01-14T01:38:47.373Z,2.23
2019-01-14T01:41:15.722Z,2.87
2019-01-14T01:43:44.032Z,2.60
2019-01-14T01:46:12.989Z,3.00
2019-01-14T01:48:41.297Z,2.50
2019-01-14T01:51:10.154Z,3.60
2019-01-14T01:53:38.461Z,2.67
2019-01-14T01:56:06.820Z,1.93
2019-01-14T01:58:35.160Z,2.23
2019-01-14T02:01:03.827Z,2.73
2019-01-14T02:03:32.172Z,1.95
2019-01-14T02:06:00.509Z,2.10
2019-01-14T02:08:28.845Z,2.07
2019-01-14T02:10:57.174Z,1.90
2019-01-14T02:13:25.533Z,1.40
2019-01-14T02:15:53.866Z,1.40
2019-01-14T02:18:22.170Z,1.47
2019-01-14T02:20:50.513Z,1.50
2019-01-14T02:23:18.865Z,1.90
2019-01-14T02:25:47.148Z,1.73
2019-01-14T02:28:15.510Z,1.50
2019-01-14T02:30:43.835Z,1.57
2019-01-14T02:33:12.614Z,1.50
2019-01-14T02:35:41.195Z,1.80
2019-01-14T02:38:09.590Z,1.37
2019-01-14T02:40:38.017Z,1.50
2019-01-14T02:43:06.315Z,1.30
2019-01-14T02:45:34.679Z,1.53
2019-01-14T02:48:03.261Z,1.57
2019-01-14T02:50:31.566Z,1.60
2019-01-14T02:52:59.896Z,1.90
2019-01-14T02:55:28.218Z,1.90
2019-01-14T02:57:56.533Z,1.70
2019-01-14T03:00:25.689Z,1.90
2019-01-14T03:02:54.078Z,1.90
2019-01-14T03:05:23.145Z,1.52
2019-01-14T03:07:51.552Z,2.00
2019-01-14T03:10:19.953Z,1.57
2019-01-14T03:12:48.337Z,1.70
2019-01-14T03:15:18.285Z,2.03
2019-01-14T03:17:48.203Z,2.07
2019-01-14T03:20:17.688Z,1.70
2019-01-14T03:22:46.026Z,1.67
2019-01-14T03:25:15.518Z,1.90
2019-01-14T03:27:43.884Z,1.50
2019-01-14T03:30:15.328Z,1.37
2019-01-14T03:32:43.678Z,1.23
2019-01-14T03:35:13.001Z,2.13
2019-01-14T03:37:41.456Z,1.27
2019-01-14T03:40:11.538Z,1.10
2019-01-14T03:42:40.607Z,1.20
2019-01-14T03:45:11.351Z,1.03
2019-01-14T03:47:39.683Z,1.20
2019-01-14T03:50:11.215Z,1.23
2019-01-14T03:52:39.534Z,1.30
2019-01-14T03:55:08.150Z,1.57
2019-01-14T03:57:36.516Z,1.20
2019-01-14T04:00:08.172Z,1.10
2019-01-14T04:02:36.588Z,1.30
2019-01-14T04:05:06.986Z,1.10
2019-01-14T04:07:35.363Z,1.00
2019-01-14T04:10:07.021Z,1.03
2019-01-14T04:12:35.363Z,1.00
2019-01-14T04:15:05.306Z,1.20
2019-01-14T04:17:33.654Z,1.40
2019-01-14T04:20:02.482Z,1.75
2019-01-14T04:22:30.815Z,1.10
2019-01-14T04:24:59.132Z,1.30
2019-01-14T04:27:27.433Z,1.07
2019-01-14T04:29:55.777Z,1.50
2019-01-14T04:32:24.100Z,1.53
2019-01-14T04:34:52.437Z,1.33
2019-01-14T04:37:21.874Z,1.50
2019-01-14T04:39:50.286Z,1.27
2019-01-14T04:42:18.629Z,1.70
2019-01-14T04:44:46.969Z,1.60
2019-01-14T04:47:15.284Z,1.53
2019-01-14T04:49:43.628Z,1.43
2019-01-14T04:52:12.213Z,1.45
2019-01-14T04:54:40.558Z,1.30
2019-01-14T04:57:08.904Z,1.60
2019-01-14T04:59:37.265Z,1.70
2019-01-14T05:02:05.749Z,1.40
2019-01-14T05:04:34.156Z,1.60
2019-01-14T05:07:02.555Z,1.45
2019-01-14T05:09:30.920Z,1.80
2019-01-14T05:11:59.263Z,1.50
2019-01-14T05:14:27.591Z,1.27
2019-01-14T05:16:56.028Z,1.40
2019-01-14T05:19:24.909Z,1.42
2019-01-14T05:21:53.330Z,1.57
2019-01-14T05:24:21.658Z,1.50
2019-01-14T05:26:49.998Z,2.33
2019-01-14T05:29:18.398Z,1.83
2019-01-14T05:31:46.763Z,1.53
2019-01-14T05:34:15.149Z,1.70
2019-01-14T05:36:43.497Z,1.42
2019-01-14T05:39:11.877Z,1.80
2019-01-14T05:41:40.216Z,1.72
2019-01-14T05:44:08.773Z,1.80
2019-01-14T05:46:37.108Z,1.80
2019-01-14T05:49:05.433Z,1.70
2019-01-14T05:51:33.804Z,2.23
2019-01-14T05:54:02.285Z,1.70
2019-01-14T05:56:30.627Z,1.40
2019-01-14T05:58:58.970Z,1.20
2019-01-14T06:01:27.797Z,1.32
2019-01-14T06:03:56.130Z,1.20
2019-01-14T06:06:24.575Z,1.40
2019-01-14T06:08:52.886Z,1.30
2019-01-14T06:11:21.222Z,1.10
2019-01-14T06:13:49.564Z,0.90
2019-01-14T06:16:18.488Z,1.10
2019-01-14T06:18:46.971Z,1.20
2019-01-14T06:21:15.298Z,0.90
2019-01-14T06:23:43.620Z,1.00
2019-01-14T06:26:12.239Z,0.90
2019-01-14T06:28:40.576Z,1.33
2019-01-14T06:31:08.886Z,1.00
2019-01-14T06:33:37.225Z,1.20
2019-01-14T06:36:05.633Z,1.80
2019-01-14T06:38:34.087Z,1.10
2019-01-14T06:41:02.486Z,1.30
2019-01-14T06:43:30.813Z,1.20
2019-01-14T06:45:59.158Z,1.50
2019-01-14T06:48:27.594Z,1.30
2019-01-14T06:50:56.218Z,1.35
2019-01-14T06:53:24.517Z,1.20
2019-01-14T06:55:52.830Z,1.80
2019-01-14T06:58:21.202Z,1.30
2019-01-14T07:00:50.364Z,1.30
2019-01-14T07:03:18.720Z,1.27
2019-01-14T07:05:48.126Z,1.20
2019-01-14T07:08:16.886Z,1.93
2019-01-14T07:10:46.091Z,1.20
2019-01-14T07:13:17.187Z,1.37
2019-01-14T07:15:45.941Z,1.20
2019-01-14T07:18:15.009Z,1.17
2019-01-14T07:20:45.305Z,1.43
2019-01-14T07:23:14.442Z,1.53
2019-01-14T07:25:44.262Z,1.70
2019-01-14T07:28:12.914Z,1.30
2019-01-14T07:30:42.462Z,1.50
2019-01-14T07:33:10.913Z,1.40
2019-01-14T07:35:39.328Z,1.20
2019-01-14T07:38:08.107Z,1.60
2019-01-14T07:40:36.457Z,1.47
2019-01-14T07:43:04.828Z,1.40
2019-01-14T07:45:33.533Z,1.20
2019-01-14T07:48:01.916Z,1.20
2019-01-14T07:50:30.309Z,1.20
2019-01-14T07:52:58.734Z,1.47
2019-01-14T07:55:27.143Z,1.30
2019-01-14T07:57:55.469Z,2.03
2019-01-14T08:00:24.498Z,1.40
2019-01-14T08:02:52.858Z,1.87
2019-01-14T10:58:24.545Z,1.60
2019-01-14T11:00:53.345Z,1.17
2019-01-14T11:03:22.723Z,1.30
2019-01-14T11:05:51.930Z,1.30
2019-01-14T11:08:20.955Z,1.47
2019-01-14T11:10:50.033Z,1.60
2019-01-14T11:13:18.884Z,1.40
2019-01-14T11:15:47.914Z,1.30
2019-01-14T11:18:16.985Z,1.50
2019-01-14T11:20:46.118Z,1.07
2019-01-14T11:23:14.408Z,1.20
2019-01-14T11:25:42.812Z,1.60
2019-01-14T11:28:11.242Z,1.35
2019-01-14T11:30:39.571Z,1.27
2019-01-14T11:33:08.185Z,1.90
2019-01-14T11:35:38.304Z,1.47
2019-01-14T11:38:08.710Z,2.07
2019-01-14T11:40:37.168Z,1.98
2019-01-14T11:43:05.526Z,3.50
2019-01-14T11:45:33.931Z,3.05
2019-01-14T11:48:02.381Z,1.10
2019-01-14T11:50:30.740Z,1.20
2019-01-14T11:52:59.146Z,1.45
2019-01-14T11:55:27.566Z,1.30
2019-01-14T11:57:55.859Z,1.27
2019-01-14T12:00:25.816Z,1.40
2019-01-14T12:02:54.309Z,1.30
2019-01-14T12:05:22.778Z,1.10
2019-01-14T12:07:51.144Z,1.33
2019-01-14T12:10:19.595Z,1.80
2019-01-14T12:12:48.063Z,1.60
2019-01-14T12:15:17.726Z,1.35
2019-01-14T12:17:46.121Z,1.53
2019-01-14T12:20:15.509Z,3.77
2019-01-14T12:22:43.933Z,1.25
2019-01-14T12:25:13.881Z,1.85
2019-01-14T12:27:42.252Z,1.30
2019-01-14T12:30:17.019Z,1.57
2019-01-14T12:32:45.322Z,1.50
2019-01-14T12:35:14.427Z,1.30
2019-01-14T12:37:42.905Z,1.40
2019-01-14T12:40:12.477Z,1.10
2019-01-14T12:42:40.858Z,1.47
2019-01-14T12:45:13.902Z,1.27
2019-01-14T12:47:42.222Z,1.43
2019-01-14T12:50:13.764Z,1.60
2019-01-14T12:52:42.084Z,1.25
2019-01-14T12:55:12.882Z,1.47
2019-01-14T12:57:41.359Z,1.40
2019-01-14T13:00:14.692Z,1.55
2019-01-14T13:02:43.046Z,1.23
2019-01-14T13:05:13.245Z,1.75
2019-01-14T13:07:41.640Z,1.83
2019-01-14T13:10:12.005Z,1.23
2019-01-14T13:12:40.533Z,1.53
2019-01-14T13:15:12.802Z,1.30
2019-01-14T13:17:41.155Z,1.30
2019-01-14T13:20:13.048Z,1.35
2019-01-14T13:22:41.361Z,1.10
2019-01-14T13:25:10.343Z,1.60
2019-01-14T13:27:38.803Z,1.47
2019-01-14T13:30:09.804Z,1.00
2019-01-14T13:32:38.187Z,1.00
2019-01-14T13:35:07.241Z,1.20
2019-01-14T13:37:35.631Z,1.50
2019-01-14T13:40:06.055Z,1.40
2019-01-14T13:42:34.395Z,1.63
2019-01-14T13:45:03.100Z,1.07
2019-01-14T13:47:31.437Z,1.12
2019-01-14T13:49:59.766Z,1.07
2019-01-14T13:52:28.424Z,1.40
2019-01-14T13:54:56.733Z,1.67
2019-01-14T13:57:25.130Z,1.27
2019-01-14T13:59:53.454Z,1.07
2019-01-14T14:02:21.802Z,1.70
2019-01-14T14:04:50.106Z,1.30
2019-01-14T14:07:18.525Z,1.40
2019-01-14T14:09:46.939Z,1.35
2019-01-14T14:12:15.241Z,1.83
2019-01-14T14:14:43.711Z,1.50
2019-01-14T14:17:12.731Z,1.50
2019-01-14T14:19:41.229Z,1.27
2019-01-14T14:22:11.808Z,1.25
2019-01-14T14:24:39.852Z,1.33
2019-01-14T14:27:08.496Z,1.23
2019-01-14T14:29:36.816Z,1.50
2019-01-14T14:32:05.209Z,1.47
2019-01-14T14:34:33.605Z,1.33
2019-01-14T14:37:01.957Z,1.75
2019-01-14T14:39:30.284Z,1.80
2019-01-14T14:41:58.580Z,1.52
2019-01-14T14:44:26.930Z,1.43
2019-01-14T14:46:55.428Z,1.63
2019-01-14T14:49:23.783Z,2.60
2019-01-14T14:51:52.505Z,1.57
2019-01-14T14:54:20.852Z,1.23
2019-01-14T14:56:49.128Z,1.40
2019-01-14T14:59:17.564Z,2.03
2019-01-14T15:01:45.965Z,1.60
2019-01-14T15:04:14.286Z,1.60
2019-01-14T15:06:42.638Z,1.50
2019-01-14T15:09:12.012Z,1.50
2019-01-14T15:11:40.302Z,1.87
2019-01-14T15:14:08.765Z,1.70
2019-01-14T15:16:37.089Z,1.42
2019-01-14T15:19:05.549Z,1.80
2019-01-14T15:21:33.883Z,1.43
2019-01-14T15:24:02.819Z,1.70
2019-01-14T15:26:31.287Z,1.50
2019-01-14T15:28:59.661Z,1.67
2019-01-14T15:31:28.002Z,1.97
2019-01-14T15:33:56.313Z,2.00
2019-01-14T15:36:24.661Z,1.90
2019-01-14T15:38:52.977Z,1.50
2019-01-14T15:41:21.330Z,1.80
2019-01-14T15:43:49.686Z,1.65
2019-01-14T15:46:18.080Z,1.63
2019-01-14T15:48:46.413Z,1.13
2019-01-14T15:51:14.801Z,1.40
2019-01-14T15:53:43.117Z,1.40
2019-01-14T15:56:11.475Z,1.23
2019-01-14T15:58:39.773Z,1.53
2019-01-14T16:01:08.118Z,1.70
2019-01-14T16:03:36.503Z,1.60
2019-01-14T16:06:04.894Z,1.47
2019-01-14T16:08:33.209Z,1.87
2019-01-14T16:11:01.562Z,1.80
2019-01-14T16:13:29.932Z,1.92
2019-01-14T16:15:58.246Z,1.93
2019-01-14T16:18:26.626Z,1.63
2019-01-14T16:20:55.017Z,1.93
2019-01-14T16:23:23.373Z,1.37
2019-01-14T16:25:51.714Z,1.63
2019-01-14T16:28:20.037Z,1.83
2019-01-14T16:30:48.449Z,1.73
2019-01-14T16:33:16.821Z,1.60
2019-01-14T16:35:45.167Z,1.60
2019-01-14T16:38:13.637Z,1.43
2019-01-14T16:40:41.988Z,1.13
2019-01-14T16:43:10.427Z,1.30
2019-01-14T16:45:38.790Z,1.53
2019-01-14T16:48:07.197Z,1.23
2019-01-14T16:50:35.632Z,1.10
2019-01-14T16:53:04.093Z,1.40
2019-01-14T16:55:35.262Z,2.13
2019-01-14T16:58:03.630Z,1.80
2019-01-14T17:00:32.133Z,1.60
2019-01-14T17:03:00.472Z,1.67
2019-01-14T17:05:28.772Z,1.90
2019-01-14T17:07:57.127Z,1.77
2019-01-14T17:10:25.517Z,1.57
2019-01-14T17:12:53.918Z,1.67
2019-01-14T17:15:22.230Z,1.40
2019-01-14T17:17:50.549Z,1.50
2019-01-14T17:20:19.249Z,1.50
2019-01-14T17:22:47.927Z,1.40
2019-01-14T17:25:16.355Z,1.80
2019-01-14T17:27:45.285Z,1.40
2019-01-14T17:30:15.565Z,1.70
2019-01-14T17:32:44.179Z,1.60
2019-01-14T17:35:13.153Z,1.80
2019-01-14T17:37:41.484Z,1.50
2019-01-14T17:40:13.685Z,2.00
2019-01-14T17:42:42.132Z,1.60
2019-01-14T17:45:11.708Z,2.77
2019-01-14T17:47:40.015Z,1.17
2019-01-14T17:50:11.051Z,2.13
2019-01-14T17:52:40.389Z,1.52
2019-01-14T17:55:09.425Z,1.80
2019-01-14T17:57:37.801Z,1.70
2019-01-14T18:00:11.767Z,1.60
2019-01-14T18:02:40.080Z,1.67
2019-01-14T18:05:08.668Z,1.87
2019-01-14T18:07:37.034Z,1.50
2019-01-14T18:10:09.992Z,1.40
2019-01-14T18:12:38.435Z,1.63
2019-01-14T18:15:07.614Z,1.90
2019-01-14T18:17:36.015Z,1.70
2019-01-14T18:20:06.258Z,2.07
2019-01-14T18:22:34.596Z,1.70
2019-01-14T18:25:03.070Z,1.60
2019-01-14T18:27:31.836Z,3.37
2019-01-14T18:30:00.298Z,2.30
2019-01-14T18:32:28.613Z,2.27
2019-01-14T18:34:56.983Z,2.20
2019-01-14T18:37:25.394Z,2.20
2019-01-14T18:39:53.821Z,1.50
2019-01-14T18:42:22.169Z,1.33
2019-01-14T18:44:50.508Z,1.70
2019-01-14T18:47:19.232Z,1.60
2019-01-14T18:49:47.537Z,1.53
2019-01-14T18:52:15.973Z,2.20
2019-01-14T18:54:44.324Z,2.23
2019-01-14T18:57:12.798Z,2.10
2019-01-14T18:59:41.162Z,2.30
2019-01-14T19:02:09.731Z,2.87
2019-01-14T19:04:38.057Z,2.20
2019-01-14T19:07:06.400Z,2.70
2019-01-14T19:09:34.884Z,2.70
2019-01-14T19:12:03.298Z,2.37
2019-01-14T19:14:31.670Z,2.50
2019-01-14T19:17:00.014Z,2.30
2019-01-14T19:19:28.394Z,1.97
2019-01-14T19:21:56.725Z,2.70
2019-01-14T19:24:25.063Z,2.20
2019-01-14T19:26:54.577Z,2.90
2019-01-14T19:29:23.042Z,1.90
2019-01-14T19:31:51.857Z,1.90
2019-01-14T19:34:20.317Z,2.27
2019-01-14T19:36:48.730Z,2.10
2019-01-14T19:39:17.129Z,2.67
2019-01-14T19:41:45.461Z,1.92
2019-01-14T19:44:13.839Z,1.90
2019-01-14T19:46:43.109Z,2.33
2019-01-14T19:49:12.206Z,2.20
2019-01-14T19:51:40.527Z,3.20
2019-01-14T19:54:08.934Z,1.83
2019-01-14T19:56:37.235Z,3.20
2019-01-14T19:59:05.677Z,2.20
2019-01-14T20:01:34.063Z,2.07
2019-01-14T20:04:02.436Z,1.70
2019-01-14T20:06:30.770Z,2.35
2019-01-14T20:08:59.121Z,2.37
2019-01-14T20:11:27.517Z,1.83
2019-01-14T20:13:56.007Z,2.00
2019-01-14T20:16:24.367Z,1.90
2019-01-14T20:18:52.756Z,2.20
2019-01-14T20:21:21.159Z,2.07
2019-01-14T20:23:52.455Z,1.90
2019-01-14T20:26:19.834Z,1.97
2019-01-14T20:28:48.180Z,2.40
2019-01-14T20:31:16.544Z,3.00
2019-01-14T20:33:44.899Z,2.50
2019-01-14T20:36:13.656Z,2.70
2019-01-14T20:38:41.985Z,2.30
2019-01-14T20:41:16.436Z,3.13
2019-01-14T20:43:41.332Z,2.20
2019-01-14T20:46:09.688Z,2.37
2019-01-14T20:48:38.028Z,2.13
2019-01-14T20:51:06.424Z,2.53
2019-01-14T20:53:34.762Z,2.50
2019-01-14T20:56:03.200Z,2.73
2019-01-14T20:58:31.515Z,2.10
2019-01-14T21:00:59.951Z,3.30
2019-01-14T21:03:28.370Z,2.30
2019-01-14T21:05:56.839Z,2.00
2019-01-14T21:08:25.145Z,2.33
2019-01-14T21:10:54.182Z,2.07
2019-01-14T21:13:22.512Z,2.23
2019-01-14T21:15:50.867Z,1.90
2019-01-14T21:18:19.271Z,2.58
2019-01-14T21:20:47.623Z,2.13
2019-01-14T21:23:15.961Z,1.90
2019-01-14T21:25:44.322Z,1.80
2019-01-14T21:28:12.722Z,2.47
2019-01-14T21:30:41.122Z,2.40
2019-01-14T21:33:09.732Z,2.40
2019-01-14T21:35:38.055Z,1.87
2019-01-14T21:38:06.376Z,1.80
2019-01-14T21:40:34.812Z,2.20
2019-01-14T21:43:03.182Z,1.75
2019-01-14T21:45:31.545Z,1.93
2019-01-14T21:48:00.639Z,1.90
2019-01-14T21:50:29.267Z,1.70
2019-01-14T21:52:57.799Z,2.05
2019-01-14T21:55:26.185Z,2.60
2019-01-14T21:57:54.582Z,1.97
2019-01-14T22:00:23.525Z,2.12
2019-01-14T22:02:51.955Z,2.33
2019-01-14T22:05:20.861Z,2.03
2019-01-14T22:07:49.345Z,1.93
2019-01-14T22:10:21.049Z,1.87
2019-01-14T22:12:49.390Z,2.90
2019-01-14T22:15:17.744Z,2.00
2019-01-14T22:17:46.105Z,2.40
2019-01-14T22:20:15.813Z,2.70
2019-01-14T22:22:44.296Z,2.10
2019-01-14T22:25:13.598Z,3.00
2019-01-14T22:27:42.018Z,2.70
2019-01-14T22:30:14.702Z,2.60
2019-01-14T22:32:43.049Z,6.53
2019-01-14T22:35:12.029Z,2.70
2019-01-14T22:37:40.422Z,3.23
2019-01-14T22:40:12.743Z,2.60
2019-01-14T22:42:41.164Z,2.40
2019-01-14T22:45:10.752Z,2.80
2019-01-14T22:47:39.171Z,2.27
2019-01-14T22:50:10.174Z,2.73
2019-01-14T22:52:38.615Z,3.07
2019-01-14T22:55:08.266Z,3.07
2019-01-14T22:57:36.612Z,2.50
2019-01-14T23:00:13.658Z,2.27
2019-01-14T23:02:42.116Z,2.60
2019-01-14T23:05:11.000Z,2.37
2019-01-14T23:07:39.369Z,3.15
2019-01-14T23:10:07.865Z,2.45
2019-01-14T23:12:36.244Z,2.93
2019-01-14T23:15:06.165Z,2.33
2019-01-14T23:17:34.473Z,3.70
2019-01-14T23:20:03.022Z,2.90
2019-01-14T23:22:31.361Z,2.77
2019-01-14T23:24:59.726Z,3.30
2019-01-14T23:27:28.130Z,2.77
2019-01-14T23:29:56.466Z,3.43
2019-01-14T23:32:25.251Z,3.47
2019-01-14T23:34:53.648Z,2.77
2019-01-14T23:37:22.036Z,3.27
2019-01-14T23:39:50.450Z,3.57
2019-01-14T23:42:19.318Z,3.15
2019-01-14T23:44:47.689Z,4.13
2019-01-14T23:47:16.006Z,3.83
2019-01-14T23:49:44.357Z,3.60
2019-01-14T23:52:12.958Z,3.17
2019-01-14T23:54:41.309Z,4.10
2019-01-14T23:57:11.352Z,3.50
2019-01-14T23:59:39.696Z,3.50
